Time;durP1;ratioP1;P1;durP2;ratioP2;P2;SDS_P1;SDS_P2;PMS_P1;PMS_P2;Temp;Humidity;BMP_temperature;BMP_pressure;BME280_temperature;BME280_humidity;BME280_pressure;Samples;Min_cycle;Max_cycle;Signal;HPM_P1;HPM_P2
2022/08/30 00:01:01;;;;;;;2.98;2.30;;;;;;;23.78;52.80;101417.37;2316825;75;50641;-72
2022/08/30 00:04:06;;;;;;;3.70;2.50;;;;;;;23.76;52.83;101407.27;2316832;76;51466;-72
2022/08/30 00:07:07;;;;;;;2.60;2.20;;;;;;;23.77;52.84;101418.94;2276111;76;22391;-72
2022/08/30 00:10:10;;;;;;;2.92;2.02;;;;;;;23.76;52.85;101414.55;2252947;76;50663;-72
2022/08/30 00:13:12;;;;;;;2.15;1.95;;;;;;;23.75;52.82;101420.47;2313506;75;51318;-72
2022/08/30 00:16:15;;;;;;;3.80;2.10;;;;;;;23.76;52.84;101422.66;2291809;77;51025;-72
2022/08/30 00:19:17;;;;;;;3.27;1.90;;;;;;;23.75;52.80;101429.11;2311414;75;51631;-72
2022/08/30 00:22:19;;;;;;;2.60;1.90;;;;;;;23.76;52.80;101428.05;2266673;77;51492;-72
2022/08/30 00:25:22;;;;;;;2.90;1.90;;;;;;;23.74;52.79;101428.27;2318018;76;51508;-71
2022/08/30 00:28:24;;;;;;;2.70;2.00;;;;;;;23.74;52.80;101422.88;2311329;75;50732;-73
2022/08/30 00:31:26;;;;;;;2.42;2.00;;;;;;;23.76;52.78;101426.70;2292046;77;50556;-74
2022/08/30 00:34:31;;;;;;;2.30;1.90;;;;;;;23.75;52.82;101422.34;2311504;75;51572;-75
2022/08/30 00:37:32;;;;;;;2.52;2.02;;;;;;;23.75;52.78;101426.41;2300571;75;22411;-72
2022/08/30 00:40:35;;;;;;;1.90;1.70;;;;;;;23.74;52.78;101436.87;2333283;75;50824;-72
2022/08/30 00:43:37;;;;;;;2.30;1.62;;;;;;;23.75;52.79;101438.56;2353517;75;51655;-71
2022/08/30 00:46:39;;;;;;;2.40;1.87;;;;;;;23.73;52.75;101437.40;2306899;75;51633;-71
2022/08/30 00:49:43;;;;;;;2.27;1.90;;;;;;;23.74;52.76;101430.12;2353505;75;50246;-71
2022/08/30 00:52:48;;;;;;;2.00;1.70;;;;;;;23.73;52.75;101425.23;2353351;75;50424;-71
2022/08/30 00:55:50;;;;;;;2.13;1.93;;;;;;;23.73;52.75;101429.81;2353633;75;50141;-71
2022/08/30 00:58:53;;;;;;;3.17;2.10;;;;;;;23.70;52.81;101423.73;2353390;75;50639;-71
2022/08/30 01:01:55;;;;;;;4.67;3.40;;;;;;;23.72;52.77;101434.39;2353492;75;50339;-70
2022/08/30 01:04:57;;;;;;;3.58;2.67;;;;;;;23.72;52.76;101432.17;2333022;75;50268;-70
2022/08/30 01:08:00;;;;;;;4.55;3.47;;;;;;;23.71;52.73;101435.37;2334066;75;51489;-71
2022/08/30 01:11:02;;;;;;;4.15;3.60;;;;;;;23.70;52.75;101429.66;2328601;75;51524;-71
2022/08/30 01:14:05;;;;;;;5.05;4.28;;;;;;;23.70;52.71;101431.84;2318655;75;51502;-74
2022/08/30 01:17:08;;;;;;;4.67;4.12;;;;;;;23.69;52.76;101442.34;2318274;75;50706;-74
2022/08/30 01:20:13;;;;;;;5.25;4.08;;;;;;;23.70;52.73;101441.30;2306176;76;50086;-74
2022/08/30 01:23:17;;;;;;;5.55;4.03;;;;;;;23.70;52.72;101444.00;2308684;76;50352;-74
2022/08/30 17:50:28;;;;;;;31.90;9.28;;;;;;;23.14;54.27;101484.47;2381805;72;28418;-75
2022/08/30 17:53:30;;;;;;;19.67;8.73;;;;;;;23.14;54.14;101485.83;2340708;75;50525;-73
2022/08/30 17:56:32;;;;;;;27.55;10.18;;;;;;;23.18;53.99;101484.94;2336021;75;51291;-72
2022/08/30 17:59:34;;;;;;;30.90;9.78;;;;;;;23.19;53.80;101486.60;2303015;76;51258;-72
2022/08/30 18:02:37;;;;;;;33.33;10.60;;;;;;;23.22;53.53;101487.07;2260044;76;52344;-73
2022/08/30 18:05:39;;;;;;;36.42;9.25;;;;;;;23.25;53.27;101489.89;2325260;75;50620;-73
2022/08/30 18:08:42;;;;;;;34.98;9.88;;;;;;;23.30;52.89;101491.50;2346311;75;51154;-73
2022/08/30 18:11:44;;;;;;;28.65;9.25;;;;;;;23.34;52.73;101498.69;2331329;75;51341;-73
2022/08/30 18:14:46;;;;;;;18.98;8.20;;;;;;;23.37;52.56;101492.89;2329072;76;50198;-72
2022/08/30 18:17:48;;;;;;;23.40;8.85;;;;;;;23.39;52.38;101497.06;2318873;76;50080;-74
2022/08/30 18:20:50;;;;;;;18.80;8.38;;;;;;;23.42;52.25;101507.48;2285260;76;50330;-72
2022/08/30 18:23:53;;;;;;;20.23;8.00;;;;;;;23.43;52.13;101512.39;2328666;76;50255;-72
2022/08/30 18:26:55;;;;;;;18.32;8.15;;;;;;;23.44;52.10;101511.34;2280447;75;51554;-73
2022/08/30 18:29:57;;;;;;;16.80;7.92;;;;;;;23.46;51.94;101526.33;2324060;75;50232;-71
2022/08/30 18:33:00;;;;;;;29.27;9.38;;;;;;;23.53;51.84;101525.54;2358093;74;50156;-73
2022/08/30 18:36:02;;;;;;;36.85;8.83;;;;;;;23.58;52.01;101528.00;2294910;74;51218;-74
2022/08/30 18:39:04;;;;;;;22.87;8.23;;;;;;;23.58;52.05;101530.70;2344590;74;51461;-72
2022/08/30 18:42:07;;;;;;;26.70;8.55;;;;;;;23.58;52.07;101539.30;2340971;75;51423;-71
2022/08/30 18:45:09;;;;;;;21.60;8.20;;;;;;;23.57;52.06;101539.82;2270411;75;51444;-73
2022/08/30 18:48:13;;;;;;;18.40;7.67;;;;;;;23.58;52.01;101537.45;2356682;74;51419;-73
2022/08/30 18:51:19;;;;;;;19.98;7.55;;;;;;;23.59;51.96;101544.52;2326256;75;50239;-73
2022/08/30 18:54:22;;;;;;;21.30;8.83;;;;;;;23.59;51.91;101548.58;2318918;75;50598;-74
2022/08/30 18:57:24;;;;;;;18.00;8.48;;;;;;;23.61;51.80;101543.81;2342272;75;51446;-73
2022/08/30 19:00:26;;;;;;;30.82;9.28;;;;;;;23.62;51.88;101544.12;2257753;76;52790;-73
2022/08/30 19:03:28;;;;;;;27.20;10.08;;;;;;;23.62;51.87;101540.07;2344234;76;51561;-75
2022/08/30 19:06:31;;;;;;;26.33;10.95;;;;;;;23.63;51.83;101539.03;2286436;75;50335;-75
2022/08/30 19:09:33;;;;;;;19.70;9.75;;;;;;;23.62;51.82;101536.54;2348938;75;50642;-76
2022/08/30 19:12:35;;;;;;;18.00;9.70;;;;;;;23.63;51.76;101530.92;2358806;75;51277;-73
2022/08/30 19:15:37;;;;;;;17.98;9.78;;;;;;;23.65;51.71;101534.27;2309225;74;49429;-74
2022/08/30 19:18:39;;;;;;;22.40;10.25;;;;;;;23.65;51.71;101534.27;2335121;75;50302;-75
2022/08/30 19:21:42;;;;;;;22.22;9.40;;;;;;;23.66;51.73;101529.70;2287553;75;50578;-74
2022/08/30 19:24:44;;;;;;;24.05;10.53;;;;;;;23.66;51.76;101530.56;2281298;75;51415;-74
2022/08/30 19:27:46;;;;;;;21.62;9.53;;;;;;;23.67;51.78;101528.16;2361991;75;50600;-72
2022/08/30 19:30:48;;;;;;;20.75;10.23;;;;;;;23.67;51.79;101529.52;2300793;76;50318;-72
2022/08/30 19:33:51;;;;;;;24.32;10.30;;;;;;;23.68;51.71;101529.82;2296052;75;51435;-73
2022/08/30 19:36:53;;;;;;;17.40;9.43;;;;;;;23.70;51.76;101530.98;2314554;76;49958;-73
2022/08/30 19:39:55;;;;;;;20.40;8.73;;;;;;;23.72;51.71;101532.16;2340573;75;51578;-74
2022/08/30 19:42:57;;;;;;;23.80;8.98;;;;;;;23.71;51.77;101535.35;2305403;76;51524;-73
2022/08/30 19:46:00;;;;;;;20.32;8.95;;;;;;;23.71;51.77;101535.35;2300652;76;50052;-75
2022/08/30 19:49:03;;;;;;;16.50;8.35;;;;;;;23.72;51.79;101540.27;2274501;75;50927;-73
2022/08/30 19:52:06;;;;;;;23.60;8.95;;;;;;;23.70;51.85;101533.17;2261295;76;50033;-74
2022/08/30 19:55:09;;;;;;;19.45;8.38;;;;;;;23.70;51.78;101538.58;2288128;76;50658;-74
2022/08/30 19:58:11;;;;;;;20.65;8.15;;;;;;;23.71;51.76;101536.70;2252743;77;50637;-74
2022/08/30 20:01:13;;;;;;;21.80;8.40;;;;;;;23.70;51.77;101541.28;2320281;76;51330;-74
2022/08/30 20:04:16;;;;;;;17.95;8.03;;;;;;;23.71;51.73;101534.00;2281444;76;50930;-75
2022/08/30 20:07:20;;;;;;;24.80;8.30;;;;;;;23.69;51.76;101545.55;2308731;76;50529;-74
2022/08/30 20:10:22;;;;;;;18.87;7.90;;;;;;;23.68;51.77;101539.80;2285903;76;22315;-74
2022/08/30 20:13:24;;;;;;;15.80;7.70;;;;;;;23.70;51.77;101548.03;2179573;78;50386;-73
2022/08/30 20:16:26;;;;;;;10.63;6.53;;;;;;;23.71;51.74;101548.86;2301162;76;49818;-73
2022/08/30 20:19:30;;;;;;;15.88;6.60;;;;;;;23.72;51.75;101546.53;2261321;75;50037;-75
2022/08/30 20:22:32;;;;;;;13.68;6.65;;;;;;;23.72;51.87;101548.37;2292233;75;51451;-75
2022/08/30 20:25:35;;;;;;;18.65;7.45;;;;;;;23.73;52.00;101550.89;2318045;76;51351;-74
2022/08/30 20:28:38;;;;;;;14.07;6.53;;;;;;;23.73;52.08;101557.64;2260506;76;50952;-71
2022/08/30 20:31:40;;;;;;;14.75;6.70;;;;;;;23.72;52.10;101561.88;2317382;76;50585;-72
2022/08/30 20:34:42;;;;;;;15.72;6.20;;;;;;;23.72;52.04;101558.69;2297775;76;50081;-73
2022/08/30 20:37:44;;;;;;;14.15;6.60;;;;;;;23.72;51.93;101565.45;2244475;76;50860;-72
2022/08/30 20:40:50;;;;;;;15.15;7.05;;;;;;;23.72;51.88;101561.88;2297840;76;50625;-72
2022/08/30 20:43:53;;;;;;;14.28;6.22;;;;;;;23.72;51.92;101555.98;2316999;76;51463;-72
2022/08/30 20:46:55;;;;;;;11.90;6.45;;;;;;;23.72;51.97;101559.18;2304915;76;51366;-72
2022/08/30 20:49:57;;;;;;;8.15;4.45;;;;;;;23.70;51.94;101562.89;2294324;76;51455;-72
2022/08/30 20:52:59;;;;;;;13.83;6.50;;;;;;;23.68;52.03;101562.77;2258776;76;49585;-72
2022/08/30 20:56:01;;;;;;;12.45;6.35;;;;;;;23.66;52.00;101558.93;2283424;76;50085;-73
2022/08/30 20:59:04;;;;;;;12.47;6.87;;;;;;;23.67;51.93;101567.34;2253743;76;50316;-73
2022/08/30 21:02:06;;;;;;;10.32;6.12;;;;;;;23.65;51.93;101564.52;2317759;76;50529;-73
2022/08/30 21:05:09;;;;;;;15.10;6.08;;;;;;;23.63;52.03;101572.80;2315868;75;50255;-73
2022/08/30 21:08:11;;;;;;;14.45;6.37;;;;;;;23.63;52.21;101574.67;2318024;76;50552;-73
2022/08/30 21:11:13;;;;;;;14.87;5.97;;;;;;;23.62;52.10;101573.84;2283633;76;51519;-73
2022/08/30 21:14:16;;;;;;;13.70;6.35;;;;;;;23.63;52.06;101580.91;2278326;76;50265;-73
2022/08/30 21:17:18;;;;;;;10.55;6.50;;;;;;;23.63;51.98;101573.33;2247280;77;50928;-73
2022/08/30 21:20:21;;;;;;;15.18;6.80;;;;;;;23.62;51.98;101571.66;2271347;76;51490;-73
2022/08/30 21:23:23;;;;;;;10.40;6.75;;;;;;;23.63;51.94;101582.78;2311004;76;51389;-73
2022/08/30 21:26:25;;;;;;;11.03;6.50;;;;;;;23.61;51.95;101569.48;2315103;76;49997;-73
2022/08/30 21:29:28;;;;;;;14.95;6.12;;;;;;;23.62;51.92;101566.27;2291755;77;51459;-73
2022/08/30 21:32:30;;;;;;;13.13;6.70;;;;;;;23.61;51.93;101572.67;2303547;76;50149;-72
2022/08/30 21:38:52;;;;;;;12.53;6.12;;;;;;;23.60;51.90;101579.95;2292996;76;24215;-72
2022/08/30 21:41:58;;;;;;;11.75;6.28;;;;;;;23.60;51.91;101581.82;2287523;76;51527;-71
2022/08/30 21:45:00;;;;;;;11.95;7.03;;;;;;;23.60;51.88;101589.41;2283241;76;50232;-73
2022/08/30 21:48:03;;;;;;;12.68;6.67;;;;;;;23.60;51.89;101589.93;2303916;76;50671;-72
2022/08/30 21:51:06;;;;;;;12.95;7.05;;;;;;;23.60;51.88;101584.52;2299024;76;50004;-72
2022/08/30 21:54:09;;;;;;;13.58;6.83;;;;;;;23.59;51.90;101590.45;2291383;76;51384;-72
2022/08/30 21:57:14;;;;;;;10.70;6.50;;;;;;;23.59;51.90;101583.70;2327748;75;51427;-72
2022/08/30 22:00:19;;;;;;;14.05;7.10;;;;;;;23.59;51.88;101587.75;2266619;77;22424;-73
2022/08/30 22:03:20;;;;;;;13.83;6.95;;;;;;;23.57;51.86;101580.34;2264052;77;22393;-73
2022/08/30 22:06:23;;;;;;;13.38;6.90;;;;;;;23.59;51.83;101577.47;2214048;77;50008;-73
2022/08/30 22:09:25;;;;;;;12.37;6.80;;;;;;;23.57;51.84;101583.05;2298698;77;51479;-73
2022/08/30 22:12:27;;;;;;;12.65;6.67;;;;;;;23.57;51.81;101592.50;2298706;76;52026;-72
2022/08/30 22:15:29;;;;;;;13.65;6.28;;;;;;;23.57;51.82;101593.85;2214419;77;50794;-73
2022/08/30 22:18:32;;;;;;;9.93;6.60;;;;;;;23.56;51.80;101592.20;2238534;76;51388;-72
2022/08/30 22:21:35;;;;;;;12.20;6.17;;;;;;;23.55;51.84;101594.55;2298726;76;50307;-73
2022/08/30 22:24:39;;;;;;;9.30;6.10;;;;;;;23.55;51.83;101591.02;2242395;77;50618;-72
2022/08/30 22:27:41;;;;;;;14.58;5.92;;;;;;;23.55;51.85;101593.72;2321202;76;50451;-72
2022/08/30 22:30:44;;;;;;;11.28;6.00;;;;;;;23.55;51.85;101592.38;2271189;77;49506;-72
2022/08/30 22:33:46;;;;;;;9.30;5.85;;;;;;;23.55;51.81;101585.62;2304817;77;51574;-72
2022/08/30 22:36:48;;;;;;;10.50;6.35;;;;;;;23.54;51.82;101590.20;2304499;77;50184;-73
2022/08/30 22:39:51;;;;;;;11.57;6.00;;;;;;;23.54;51.83;101594.77;2246706;77;49415;-73
2022/08/30 22:42:53;;;;;;;10.00;6.45;;;;;;;23.53;51.85;101588.53;2271561;77;52133;-73
2022/08/30 22:45:56;;;;;;;8.58;5.45;;;;;;;23.53;51.84;101595.28;2271384;77;50049;-73
2022/08/30 22:48:58;;;;;;;8.43;5.60;;;;;;;23.53;51.84;101591.23;2304852;77;51459;-72
2022/08/30 22:52:01;;;;;;;9.95;5.40;;;;;;;23.51;51.88;101600.04;2339875;74;51307;-72
2022/08/30 22:55:03;;;;;;;11.25;5.72;;;;;;;23.52;51.89;101600.35;2355617;75;51347;-72
2022/08/30 22:58:05;;;;;;;9.33;5.35;;;;;;;23.51;51.85;101596.51;2284622;75;51499;-72
2022/08/30 23:01:07;;;;;;;10.05;5.60;;;;;;;23.50;51.86;101586.19;2296724;76;53614;-72
2022/08/30 23:04:10;;;;;;;9.03;5.45;;;;;;;23.52;51.86;101599.00;2296361;76;49559;-72
2022/08/30 23:07:12;;;;;;;8.23;5.10;;;;;;;23.50;51.85;101597.00;2296502;76;51492;-72
2022/08/30 23:10:14;;;;;;;8.90;5.47;;;;;;;23.51;51.85;101602.74;2296484;76;51375;-72
2022/08/30 23:13:17;;;;;;;7.00;4.80;;;;;;;23.50;51.86;101606.97;2296686;76;51469;-72
2022/08/30 23:16:19;;;;;;;11.75;5.97;;;;;;;23.50;51.84;101605.10;2296338;76;50310;-72
2022/08/30 23:19:22;;;;;;;7.97;4.80;;;;;;;23.49;51.82;101607.49;2295991;76;49536;-72
2022/08/30 23:22:25;;;;;;;9.38;4.78;;;;;;;23.50;51.82;101604.27;2296877;76;51552;-71
